sensor_id;sensor_type;location;lat;lon;timestamp;temperature;humidity
20504;DHT22;10410;51.046;6.980;2023-02-22T00:06:52;6.20;99.90
20504;DHT22;10410;51.046;6.980;2023-02-22T00:13:53;6.20;99.90
20504;DHT22;10410;51.046;6.980;2023-02-22T00:20:57;6.10;99.90
20504;DHT22;10410;51.046;6.980;2023-02-22T00:27:59;6.00;99.90
20504;DHT22;10410;51.046;6.980;2023-02-22T00:35:00;5.90;99.90
20504;DHT22;10410;51.046;6.980;2023-02-22T00:42:01;5.80;99.90
20504;DHT22;10410;51.046;6.980;2023-02-22T00:49:01;5.80;99.90
20504;DHT22;10410;51.046;6.980;2023-02-22T00:56:02;5.80;99.90
20504;DHT22;10410;51.046;6.980;2023-02-22T01:03:07;5.80;99.90
20504;DHT22;10410;51.046;6.980;2023-02-22T01:10:08;5.80;99.90
20504;DHT22;10410;51.046;6.980;2023-02-22T01:17:10;5.90;99.90
20504;DHT22;10410;51.046;6.980;2023-02-22T01:24:10;5.90;99.90
20504;DHT22;10410;51.046;6.980;2023-02-22T01:31:15;5.90;99.90
20504;DHT22;10410;51.046;6.980;2023-02-22T01:38:16;5.90;99.90
20504;DHT22;10410;51.046;6.980;2023-02-22T01:52:30;5.90;99.90
20504;DHT22;10410;51.046;6.980;2023-02-22T01:59:33;5.90;99.90
20504;DHT22;10410;51.046;6.980;2023-02-22T02:06:38;5.90;99.90
20504;DHT22;10410;51.046;6.980;2023-02-22T02:13:38;5.80;99.90
20504;DHT22;10410;51.046;6.980;2023-02-22T02:35:27;5.70;99.90
20504;DHT22;10410;51.046;6.980;2023-02-22T02:42:40;5.80;99.90
20504;DHT22;10410;51.046;6.980;2023-02-22T02:49:50;5.70;99.90
20504;DHT22;10410;51.046;6.980;2023-02-22T02:56:50;5.60;99.90
20504;DHT22;10410;51.046;6.980;2023-02-22T03:11:39;5.50;99.90
20504;DHT22;10410;51.046;6.980;2023-02-22T03:18:52;5.40;99.90
20504;DHT22;10410;51.046;6.980;2023-02-22T03:26:16;5.30;99.90
20504;DHT22;10410;51.046;6.980;2023-02-22T03:33:30;5.20;99.90
20504;DHT22;10410;51.046;6.980;2023-02-22T03:40:38;5.10;99.90
20504;DHT22;10410;51.046;6.980;2023-02-22T03:47:47;5.10;99.90
20504;DHT22;10410;51.046;6.980;2023-02-22T03:54:52;5.00;99.90
20504;DHT22;10410;51.046;6.980;2023-02-22T04:01:54;4.90;99.90
20504;DHT22;10410;51.046;6.980;2023-02-22T04:08:55;4.90;99.90
20504;DHT22;10410;51.046;6.980;2023-02-22T04:15:55;4.80;99.90
20504;DHT22;10410;51.046;6.980;2023-02-22T04:22:57;4.80;99.90
20504;DHT22;10410;51.046;6.980;2023-02-22T04:29:57;4.70;99.90
20504;DHT22;10410;51.046;6.980;2023-02-22T04:36:58;4.70;99.90
20504;DHT22;10410;51.046;6.980;2023-02-22T04:43:59;4.60;99.90
20504;DHT22;10410;51.046;6.980;2023-02-22T04:51:00;4.60;99.90
20504;DHT22;10410;51.046;6.980;2023-02-22T04:58:03;4.60;99.90
20504;DHT22;10410;51.046;6.980;2023-02-22T05:05:03;4.70;99.90
20504;DHT22;10410;51.046;6.980;2023-02-22T05:12:04;4.70;99.90
20504;DHT22;10410;51.046;6.980;2023-02-22T05:19:05;4.70;99.90
20504;DHT22;10410;51.046;6.980;2023-02-22T05:26:06;4.80;99.90
20504;DHT22;10410;51.046;6.980;2023-02-22T05:33:08;4.70;99.90
20504;DHT22;10410;51.046;6.980;2023-02-22T05:40:10;4.70;99.90
20504;DHT22;10410;51.046;6.980;2023-02-22T05:47:11;4.70;99.90
20504;DHT22;10410;51.046;6.980;2023-02-22T05:54:11;4.60;99.90
20504;DHT22;10410;51.046;6.980;2023-02-22T06:01:11;4.50;99.90
20504;DHT22;10410;51.046;6.980;2023-02-22T06:08:12;4.30;99.90
20504;DHT22;10410;51.046;6.980;2023-02-22T06:15:14;4.20;99.90
20504;DHT22;10410;51.046;6.980;2023-02-22T06:22:16;4.20;99.90
20504;DHT22;10410;51.046;6.980;2023-02-22T06:29:17;4.20;99.90
20504;DHT22;10410;51.046;6.980;2023-02-22T06:36:17;4.10;99.90
20504;DHT22;10410;51.046;6.980;2023-02-22T06:43:18;4.10;99.90
20504;DHT22;10410;51.046;6.980;2023-02-22T06:50:27;4.00;99.90
20504;DHT22;10410;51.046;6.980;2023-02-22T06:57:28;3.90;99.90
20504;DHT22;10410;51.046;6.980;2023-02-22T07:04:29;4.00;99.90
20504;DHT22;10410;51.046;6.980;2023-02-22T07:11:29;4.10;99.90
20504;DHT22;10410;51.046;6.980;2023-02-22T07:18:29;4.20;99.90
20504;DHT22;10410;51.046;6.980;2023-02-22T07:25:30;4.30;99.90
20504;DHT22;10410;51.046;6.980;2023-02-22T07:32:30;4.40;99.90
20504;DHT22;10410;51.046;6.980;2023-02-22T07:39:30;4.60;99.90
20504;DHT22;10410;51.046;6.980;2023-02-22T07:46:32;4.70;99.90
20504;DHT22;10410;51.046;6.980;2023-02-22T07:53:33;4.90;99.90
20504;DHT22;10410;51.046;6.980;2023-02-22T08:00:36;5.00;99.90
20504;DHT22;10410;51.046;6.980;2023-02-22T08:07:38;5.10;99.90
20504;DHT22;10410;51.046;6.980;2023-02-22T08:14:39;5.20;99.90
20504;DHT22;10410;51.046;6.980;2023-02-22T08:21:40;5.40;99.90
20504;DHT22;10410;51.046;6.980;2023-02-22T08:28:40;5.50;99.90
20504;DHT22;10410;51.046;6.980;2023-02-22T08:35:41;5.70;99.90
20504;DHT22;10410;51.046;6.980;2023-02-22T08:42:42;5.90;99.90
20504;DHT22;10410;51.046;6.980;2023-02-22T08:49:43;6.20;99.90
20504;DHT22;10410;51.046;6.980;2023-02-22T08:56:44;6.50;99.90
20504;DHT22;10410;51.046;6.980;2023-02-22T09:03:47;6.70;99.90
20504;DHT22;10410;51.046;6.980;2023-02-22T09:10:48;7.00;99.90
20504;DHT22;10410;51.046;6.980;2023-02-22T09:17:49;7.40;99.90
20504;DHT22;10410;51.046;6.980;2023-02-22T09:24:51;7.60;99.90
20504;DHT22;10410;51.046;6.980;2023-02-22T09:31:53;7.90;99.90
20504;DHT22;10410;51.046;6.980;2023-02-22T09:38:54;8.20;99.90
20504;DHT22;10410;51.046;6.980;2023-02-22T10:00:16;8.90;99.90
20504;DHT22;10410;51.046;6.980;2023-02-22T10:07:38;9.10;99.90
20504;DHT22;10410;51.046;6.980;2023-02-22T10:22:29;9.60;99.90
20504;DHT22;10410;51.046;6.980;2023-02-22T10:29:36;9.80;99.90
20504;DHT22;10410;51.046;6.980;2023-02-22T10:36:39;10.00;99.90
20504;DHT22;10410;51.046;6.980;2023-02-22T10:43:41;10.20;99.90
20504;DHT22;10410;51.046;6.980;2023-02-22T10:50:43;10.40;99.90
20504;DHT22;10410;51.046;6.980;2023-02-22T10:57:46;10.70;99.90
20504;DHT22;10410;51.046;6.980;2023-02-22T11:04:53;11.10;99.90
20504;DHT22;10410;51.046;6.980;2023-02-22T11:12:08;11.40;99.90
20504;DHT22;10410;51.046;6.980;2023-02-22T11:26:15;12.10;99.90
20504;DHT22;10410;51.046;6.980;2023-02-22T11:33:22;12.40;99.90
20504;DHT22;10410;51.046;6.980;2023-02-22T11:40:24;12.60;99.90
20504;DHT22;10410;51.046;6.980;2023-02-22T11:47:26;12.90;99.90
20504;DHT22;10410;51.046;6.980;2023-02-22T11:54:41;13.20;99.90
20504;DHT22;10410;51.046;6.980;2023-02-22T12:01:48;13.50;99.90
20504;DHT22;10410;51.046;6.980;2023-02-22T12:09:12;13.60;99.90
20504;DHT22;10410;51.046;6.980;2023-02-22T12:16:27;13.80;99.90
20504;DHT22;10410;51.046;6.980;2023-02-22T12:23:44;14.10;99.90
20504;DHT22;10410;51.046;6.980;2023-02-22T12:38:14;14.40;99.90
20504;DHT22;10410;51.046;6.980;2023-02-22T12:45:35;14.50;99.90
20504;DHT22;10410;51.046;6.980;2023-02-22T12:53:13;14.80;99.90
20504;DHT22;10410;51.046;6.980;2023-02-22T13:00:41;14.90;99.90
20504;DHT22;10410;51.046;6.980;2023-02-22T13:08:16;15.00;99.90
20504;DHT22;10410;51.046;6.980;2023-02-22T13:15:41;15.00;99.90
20504;DHT22;10410;51.046;6.980;2023-02-22T13:23:10;15.10;99.90
20504;DHT22;10410;51.046;6.980;2023-02-22T13:31:02;15.10;99.90
20504;DHT22;10410;51.046;6.980;2023-02-22T13:37:58;15.20;99.90
20504;DHT22;10410;51.046;6.980;2023-02-22T13:52:37;15.10;99.90
20504;DHT22;10410;51.046;6.980;2023-02-22T13:59:39;15.00;99.90
20504;DHT22;10410;51.046;6.980;2023-02-22T14:06:39;15.00;99.90
20504;DHT22;10410;51.046;6.980;2023-02-22T14:21:05;15.40;99.90
20504;DHT22;10410;51.046;6.980;2023-02-22T14:35:39;15.80;99.90
20504;DHT22;10410;51.046;6.980;2023-02-22T14:43:10;16.00;99.90
20504;DHT22;10410;51.046;6.980;2023-02-22T14:50:19;16.40;99.90
20504;DHT22;10410;51.046;6.980;2023-02-22T15:04:38;17.60;99.90
20504;DHT22;10410;51.046;6.980;2023-02-22T15:11:43;18.00;99.90
20504;DHT22;10410;51.046;6.980;2023-02-22T15:18:47;17.90;99.90
20504;DHT22;10410;51.046;6.980;2023-02-22T15:25:49;17.40;99.90
20504;DHT22;10410;51.046;6.980;2023-02-22T15:32:49;16.90;99.90
20504;DHT22;10410;51.046;6.980;2023-02-22T15:40:16;16.60;99.90
20504;DHT22;10410;51.046;6.980;2023-02-22T15:47:29;16.30;99.90
20504;DHT22;10410;51.046;6.980;2023-02-22T15:54:44;16.10;99.90
20504;DHT22;10410;51.046;6.980;2023-02-22T16:01:47;15.90;99.90
20504;DHT22;10410;51.046;6.980;2023-02-22T16:08:50;15.70;99.90
20504;DHT22;10410;51.046;6.980;2023-02-22T16:16:42;15.60;99.90
20504;DHT22;10410;51.046;6.980;2023-02-22T16:23:27;15.40;99.90
20504;DHT22;10410;51.046;6.980;2023-02-22T16:30:38;15.30;99.90
20504;DHT22;10410;51.046;6.980;2023-02-22T16:37:40;15.10;99.90
20504;DHT22;10410;51.046;6.980;2023-02-22T16:44:40;15.00;99.90
20504;DHT22;10410;51.046;6.980;2023-02-22T16:51:46;14.80;99.90
20504;DHT22;10410;51.046;6.980;2023-02-22T16:58:49;14.60;99.90
20504;DHT22;10410;51.046;6.980;2023-02-22T17:05:49;14.50;99.90
20504;DHT22;10410;51.046;6.980;2023-02-22T17:12:51;14.20;99.90
20504;DHT22;10410;51.046;6.980;2023-02-22T17:19:52;14.00;99.90
20504;DHT22;10410;51.046;6.980;2023-02-22T17:26:54;13.70;99.90
20504;DHT22;10410;51.046;6.980;2023-02-22T17:34:01;13.60;99.90
20504;DHT22;10410;51.046;6.980;2023-02-22T17:41:01;13.40;99.90
20504;DHT22;10410;51.046;6.980;2023-02-22T17:48:03;13.30;99.90
20504;DHT22;10410;51.046;6.980;2023-02-22T17:55:04;13.10;99.90
20504;DHT22;10410;51.046;6.980;2023-02-22T18:02:05;12.90;99.90
20504;DHT22;10410;51.046;6.980;2023-02-22T18:09:06;12.70;99.90
20504;DHT22;10410;51.046;6.980;2023-02-22T18:16:10;12.50;99.90
20504;DHT22;10410;51.046;6.980;2023-02-22T18:23:13;12.50;99.90
20504;DHT22;10410;51.046;6.980;2023-02-22T18:30:14;12.40;99.90
20504;DHT22;10410;51.046;6.980;2023-02-22T18:37:15;12.30;99.90
20504;DHT22;10410;51.046;6.980;2023-02-22T18:44:19;12.10;99.90
20504;DHT22;10410;51.046;6.980;2023-02-22T18:51:20;12.00;99.90
20504;DHT22;10410;51.046;6.980;2023-02-22T18:58:20;11.80;99.90
20504;DHT22;10410;51.046;6.980;2023-02-22T19:05:21;11.70;99.90
20504;DHT22;10410;51.046;6.980;2023-02-22T19:12:23;11.60;99.90
20504;DHT22;10410;51.046;6.980;2023-02-22T19:19:26;11.50;99.90
20504;DHT22;10410;51.046;6.980;2023-02-22T19:26:27;11.50;99.90
20504;DHT22;10410;51.046;6.980;2023-02-22T19:33:28;11.50;99.90
20504;DHT22;10410;51.046;6.980;2023-02-22T19:40:28;11.40;99.90
20504;DHT22;10410;51.046;6.980;2023-02-22T19:47:29;11.40;99.90
20504;DHT22;10410;51.046;6.980;2023-02-22T19:54:30;11.30;99.90
20504;DHT22;10410;51.046;6.980;2023-02-22T20:01:31;11.30;99.90
20504;DHT22;10410;51.046;6.980;2023-02-22T20:08:33;11.30;99.90
20504;DHT22;10410;51.046;6.980;2023-02-22T20:15:34;11.20;99.90
20504;DHT22;10410;51.046;6.980;2023-02-22T20:22:34;11.20;99.90
20504;DHT22;10410;51.046;6.980;2023-02-22T20:29:34;11.10;99.90
20504;DHT22;10410;51.046;6.980;2023-02-22T20:36:37;11.00;99.90
20504;DHT22;10410;51.046;6.980;2023-02-22T20:43:38;10.90;99.90
20504;DHT22;10410;51.046;6.980;2023-02-22T20:50:38;10.80;99.90
20504;DHT22;10410;51.046;6.980;2023-02-22T20:57:39;10.80;99.90
20504;DHT22;10410;51.046;6.980;2023-02-22T21:04:39;10.70;99.90
20504;DHT22;10410;51.046;6.980;2023-02-22T21:11:40;10.60;99.90
20504;DHT22;10410;51.046;6.980;2023-02-22T21:18:41;10.60;99.90
20504;DHT22;10410;51.046;6.980;2023-02-22T21:25:51;10.60;99.90
20504;DHT22;10410;51.046;6.980;2023-02-22T21:32:53;10.50;99.90
20504;DHT22;10410;51.046;6.980;2023-02-22T21:39:54;10.40;99.90
20504;DHT22;10410;51.046;6.980;2023-02-22T21:46:55;10.40;99.90
20504;DHT22;10410;51.046;6.980;2023-02-22T21:53:56;10.40;99.90
20504;DHT22;10410;51.046;6.980;2023-02-22T22:01:04;10.30;99.90
20504;DHT22;10410;51.046;6.980;2023-02-22T22:08:05;10.20;99.90
20504;DHT22;10410;51.046;6.980;2023-02-22T22:15:06;10.20;99.90
20504;DHT22;10410;51.046;6.980;2023-02-22T22:22:07;10.10;99.90
20504;DHT22;10410;51.046;6.980;2023-02-22T22:29:07;10.10;99.90
20504;DHT22;10410;51.046;6.980;2023-02-22T22:36:10;10.00;99.90
20504;DHT22;10410;51.046;6.980;2023-02-22T22:43:11;10.00;99.90
20504;DHT22;10410;51.046;6.980;2023-02-22T22:50:15;10.00;99.90
20504;DHT22;10410;51.046;6.980;2023-02-22T22:57:19;10.00;99.90
20504;DHT22;10410;51.046;6.980;2023-02-22T23:04:22;10.00;99.90
20504;DHT22;10410;51.046;6.980;2023-02-22T23:11:29;10.00;99.90
20504;DHT22;10410;51.046;6.980;2023-02-22T23:18:33;10.00;99.90
20504;DHT22;10410;51.046;6.980;2023-02-22T23:25:35;9.90;99.90
20504;DHT22;10410;51.046;6.980;2023-02-22T23:32:37;9.90;99.90
20504;DHT22;10410;51.046;6.980;2023-02-22T23:39:38;9.90;99.90
20504;DHT22;10410;51.046;6.980;2023-02-22T23:46:39;9.90;99.90
20504;DHT22;10410;51.046;6.980;2023-02-22T23:53:41;9.90;99.90
